sensor_id;sensor_type;location;lat;lon;timestamp;temperature;humidity
36444;DHT22;24692;45.642;13.806;2023-11-21T00:02:07;13.10;99.90
36444;DHT22;24692;45.642;13.806;2023-11-21T00:04:33;13.10;99.90
36444;DHT22;24692;45.642;13.806;2023-11-21T00:06:58;13.10;99.90
36444;DHT22;24692;45.642;13.806;2023-11-21T00:09:24;13.10;99.90
36444;DHT22;24692;45.642;13.806;2023-11-21T00:11:50;13.10;99.90
36444;DHT22;24692;45.642;13.806;2023-11-21T00:14:16;13.10;99.90
36444;DHT22;24692;45.642;13.806;2023-11-21T00:16:41;13.00;99.90
36444;DHT22;24692;45.642;13.806;2023-11-21T00:19:07;12.90;99.90
36444;DHT22;24692;45.642;13.806;2023-11-21T00:21:33;12.90;99.90
36444;DHT22;24692;45.642;13.806;2023-11-21T00:23:58;12.70;99.90
36444;DHT22;24692;45.642;13.806;2023-11-21T00:26:24;12.70;99.90
36444;DHT22;24692;45.642;13.806;2023-11-21T00:28:50;12.70;99.90
36444;DHT22;24692;45.642;13.806;2023-11-21T00:31:16;12.80;99.90
36444;DHT22;24692;45.642;13.806;2023-11-21T00:33:42;12.80;99.90
36444;DHT22;24692;45.642;13.806;2023-11-21T00:36:09;12.90;99.90
36444;DHT22;24692;45.642;13.806;2023-11-21T00:38:35;12.90;99.90
36444;DHT22;24692;45.642;13.806;2023-11-21T00:41:01;12.90;99.90
36444;DHT22;24692;45.642;13.806;2023-11-21T00:43:28;12.90;99.90
36444;DHT22;24692;45.642;13.806;2023-11-21T00:45:54;12.90;99.90
36444;DHT22;24692;45.642;13.806;2023-11-21T00:48:19;12.90;99.90
36444;DHT22;24692;45.642;13.806;2023-11-21T00:50:45;13.00;99.90
36444;DHT22;24692;45.642;13.806;2023-11-21T00:53:11;13.00;99.90
36444;DHT22;24692;45.642;13.806;2023-11-21T00:55:37;13.10;99.90
36444;DHT22;24692;45.642;13.806;2023-11-21T00:58:05;13.10;99.90
36444;DHT22;24692;45.642;13.806;2023-11-21T01:00:33;13.10;99.90
36444;DHT22;24692;45.642;13.806;2023-11-21T01:02:59;13.10;99.90
36444;DHT22;24692;45.642;13.806;2023-11-21T01:05:25;13.10;99.90
36444;DHT22;24692;45.642;13.806;2023-11-21T01:07:50;13.10;99.90
36444;DHT22;24692;45.642;13.806;2023-11-21T01:10:16;13.10;99.90
36444;DHT22;24692;45.642;13.806;2023-11-21T01:12:43;13.10;99.90
36444;DHT22;24692;45.642;13.806;2023-11-21T01:15:08;12.90;99.90
36444;DHT22;24692;45.642;13.806;2023-11-21T01:17:34;12.80;99.90
36444;DHT22;24692;45.642;13.806;2023-11-21T01:20:02;12.80;99.90
36444;DHT22;24692;45.642;13.806;2023-11-21T01:22:28;12.80;99.90
36444;DHT22;24692;45.642;13.806;2023-11-21T01:24:54;12.80;99.90
36444;DHT22;24692;45.642;13.806;2023-11-21T01:27:20;12.80;99.90
36444;DHT22;24692;45.642;13.806;2023-11-21T01:29:46;12.90;99.90
36444;DHT22;24692;45.642;13.806;2023-11-21T01:32:11;12.90;99.90
36444;DHT22;24692;45.642;13.806;2023-11-21T01:34:37;12.80;99.90
36444;DHT22;24692;45.642;13.806;2023-11-21T01:37:03;12.80;99.90
36444;DHT22;24692;45.642;13.806;2023-11-21T01:39:31;12.80;99.90
36444;DHT22;24692;45.642;13.806;2023-11-21T01:41:57;12.90;99.90
36444;DHT22;24692;45.642;13.806;2023-11-21T01:44:25;12.90;99.90
36444;DHT22;24692;45.642;13.806;2023-11-21T01:46:51;12.90;99.90
36444;DHT22;24692;45.642;13.806;2023-11-21T01:49:17;12.80;99.90
36444;DHT22;24692;45.642;13.806;2023-11-21T01:51:48;12.90;99.90
36444;DHT22;24692;45.642;13.806;2023-11-21T01:54:19;12.80;99.90
36444;DHT22;24692;45.642;13.806;2023-11-21T01:56:46;12.80;99.90
36444;DHT22;24692;45.642;13.806;2023-11-21T01:59:15;12.80;99.90
36444;DHT22;24692;45.642;13.806;2023-11-21T02:01:41;12.80;99.90
36444;DHT22;24692;45.642;13.806;2023-11-21T02:04:07;12.80;99.90
36444;DHT22;24692;45.642;13.806;2023-11-21T02:06:33;12.80;99.90
36444;DHT22;24692;45.642;13.806;2023-11-21T02:08:59;12.90;99.90
36444;DHT22;24692;45.642;13.806;2023-11-21T02:11:25;12.90;99.90
36444;DHT22;24692;45.642;13.806;2023-11-21T02:13:53;12.90;99.90
36444;DHT22;24692;45.642;13.806;2023-11-21T02:16:19;12.90;99.90
36444;DHT22;24692;45.642;13.806;2023-11-21T02:18:47;12.90;99.90
36444;DHT22;24692;45.642;13.806;2023-11-21T02:21:14;12.90;99.90
36444;DHT22;24692;45.642;13.806;2023-11-21T02:23:40;12.90;99.90
36444;DHT22;24692;45.642;13.806;2023-11-21T02:26:10;12.80;99.90
36444;DHT22;24692;45.642;13.806;2023-11-21T02:28:36;12.90;99.90
36444;DHT22;24692;45.642;13.806;2023-11-21T02:31:04;12.90;99.90
36444;DHT22;24692;45.642;13.806;2023-11-21T02:33:30;13.00;99.90
36444;DHT22;24692;45.642;13.806;2023-11-21T02:36:00;13.00;99.90
36444;DHT22;24692;45.642;13.806;2023-11-21T02:38:26;13.10;99.90
36444;DHT22;24692;45.642;13.806;2023-11-21T02:40:51;13.20;99.90
36444;DHT22;24692;45.642;13.806;2023-11-21T02:43:17;13.30;99.90
36444;DHT22;24692;45.642;13.806;2023-11-21T02:45:43;13.30;99.90
36444;DHT22;24692;45.642;13.806;2023-11-21T02:48:09;13.20;99.90
36444;DHT22;24692;45.642;13.806;2023-11-21T02:50:34;13.20;99.90
36444;DHT22;24692;45.642;13.806;2023-11-21T02:53:01;13.20;99.90
36444;DHT22;24692;45.642;13.806;2023-11-21T02:55:27;13.20;99.90
36444;DHT22;24692;45.642;13.806;2023-11-21T02:57:53;13.20;99.90
36444;DHT22;24692;45.642;13.806;2023-11-21T03:00:21;13.20;99.90
36444;DHT22;24692;45.642;13.806;2023-11-21T03:02:49;13.20;99.90
36444;DHT22;24692;45.642;13.806;2023-11-21T03:05:15;13.20;99.90
36444;DHT22;24692;45.642;13.806;2023-11-21T03:07:41;13.20;99.90
36444;DHT22;24692;45.642;13.806;2023-11-21T03:10:07;13.30;99.90
36444;DHT22;24692;45.642;13.806;2023-11-21T03:12:39;13.30;99.90
36444;DHT22;24692;45.642;13.806;2023-11-21T03:15:06;13.30;99.90
36444;DHT22;24692;45.642;13.806;2023-11-21T03:17:32;13.40;99.90
36444;DHT22;24692;45.642;13.806;2023-11-21T03:20:00;13.40;99.90
36444;DHT22;24692;45.642;13.806;2023-11-21T03:22:25;13.50;99.90
36444;DHT22;24692;45.642;13.806;2023-11-21T03:24:51;13.60;99.90
36444;DHT22;24692;45.642;13.806;2023-11-21T03:27:18;13.50;99.90
36444;DHT22;24692;45.642;13.806;2023-11-21T03:29:44;13.60;99.90
36444;DHT22;24692;45.642;13.806;2023-11-21T03:32:12;13.60;99.90
36444;DHT22;24692;45.642;13.806;2023-11-21T03:34:56;13.60;99.90
36444;DHT22;24692;45.642;13.806;2023-11-21T03:37:22;13.60;99.90
36444;DHT22;24692;45.642;13.806;2023-11-21T03:39:48;13.70;99.90
36444;DHT22;24692;45.642;13.806;2023-11-21T03:42:13;13.70;99.90
36444;DHT22;24692;45.642;13.806;2023-11-21T03:44:39;13.80;99.90
36444;DHT22;24692;45.642;13.806;2023-11-21T03:47:05;13.80;99.90
36444;DHT22;24692;45.642;13.806;2023-11-21T03:49:31;13.60;99.90
36444;DHT22;24692;45.642;13.806;2023-11-21T03:51:56;13.50;99.90
36444;DHT22;24692;45.642;13.806;2023-11-21T03:54:22;13.40;99.90
36444;DHT22;24692;45.642;13.806;2023-11-21T03:56:48;13.40;99.90
36444;DHT22;24692;45.642;13.806;2023-11-21T03:59:13;13.40;99.90
36444;DHT22;24692;45.642;13.806;2023-11-21T04:01:39;13.50;99.90
36444;DHT22;24692;45.642;13.806;2023-11-21T04:04:04;13.40;99.90
36444;DHT22;24692;45.642;13.806;2023-11-21T04:06:30;13.20;99.90
36444;DHT22;24692;45.642;13.806;2023-11-21T04:08:58;13.20;99.90
36444;DHT22;24692;45.642;13.806;2023-11-21T04:11:24;13.10;99.90
36444;DHT22;24692;45.642;13.806;2023-11-21T04:13:50;13.10;99.90
36444;DHT22;24692;45.642;13.806;2023-11-21T04:16:15;13.10;99.90
36444;DHT22;24692;45.642;13.806;2023-11-21T04:18:41;13.00;99.90
36444;DHT22;24692;45.642;13.806;2023-11-21T04:21:07;13.00;99.90
36444;DHT22;24692;45.642;13.806;2023-11-21T04:23:34;12.90;99.90
36444;DHT22;24692;45.642;13.806;2023-11-21T04:26:00;12.90;99.90
36444;DHT22;24692;45.642;13.806;2023-11-21T04:28:27;12.90;99.90
36444;DHT22;24692;45.642;13.806;2023-11-21T04:30:53;12.80;99.90
36444;DHT22;24692;45.642;13.806;2023-11-21T04:33:19;12.80;99.90
36444;DHT22;24692;45.642;13.806;2023-11-21T04:35:45;12.80;99.90
36444;DHT22;24692;45.642;13.806;2023-11-21T04:38:11;12.80;99.90
36444;DHT22;24692;45.642;13.806;2023-11-21T04:40:37;12.90;99.90
36444;DHT22;24692;45.642;13.806;2023-11-21T04:43:03;12.90;99.90
36444;DHT22;24692;45.642;13.806;2023-11-21T04:45:29;12.90;99.90
36444;DHT22;24692;45.642;13.806;2023-11-21T04:47:55;12.90;99.90
36444;DHT22;24692;45.642;13.806;2023-11-21T04:50:21;12.90;99.90
36444;DHT22;24692;45.642;13.806;2023-11-21T04:52:47;12.90;99.90
36444;DHT22;24692;45.642;13.806;2023-11-21T04:55:13;13.00;99.90
36444;DHT22;24692;45.642;13.806;2023-11-21T04:57:39;13.10;99.90
36444;DHT22;24692;45.642;13.806;2023-11-21T05:00:08;13.30;99.90
36444;DHT22;24692;45.642;13.806;2023-11-21T05:02:34;13.40;99.90
36444;DHT22;24692;45.642;13.806;2023-11-21T05:05:01;13.50;99.90
36444;DHT22;24692;45.642;13.806;2023-11-21T05:07:26;13.60;99.90
36444;DHT22;24692;45.642;13.806;2023-11-21T05:09:55;13.60;99.90
36444;DHT22;24692;45.642;13.806;2023-11-21T05:12:24;13.70;99.90
36444;DHT22;24692;45.642;13.806;2023-11-21T05:14:50;13.70;99.90
36444;DHT22;24692;45.642;13.806;2023-11-21T05:17:16;13.70;99.90
36444;DHT22;24692;45.642;13.806;2023-11-21T05:19:42;13.80;99.90
36444;DHT22;24692;45.642;13.806;2023-11-21T05:22:11;13.80;99.90
36444;DHT22;24692;45.642;13.806;2023-11-21T05:24:37;13.90;99.90
36444;DHT22;24692;45.642;13.806;2023-11-21T05:27:05;13.90;99.90
36444;DHT22;24692;45.642;13.806;2023-11-21T05:29:30;13.90;99.90
36444;DHT22;24692;45.642;13.806;2023-11-21T05:31:56;13.90;99.90
36444;DHT22;24692;45.642;13.806;2023-11-21T05:34:22;13.90;99.90
36444;DHT22;24692;45.642;13.806;2023-11-21T05:36:50;13.90;99.90
36444;DHT22;24692;45.642;13.806;2023-11-21T05:39:15;13.90;99.90
36444;DHT22;24692;45.642;13.806;2023-11-21T05:41:43;13.80;99.90
36444;DHT22;24692;45.642;13.806;2023-11-21T05:44:08;13.80;99.90
36444;DHT22;24692;45.642;13.806;2023-11-21T05:46:34;13.70;99.90
36444;DHT22;24692;45.642;13.806;2023-11-21T05:49:00;13.70;99.90
36444;DHT22;24692;45.642;13.806;2023-11-21T05:51:26;13.70;99.90
36444;DHT22;24692;45.642;13.806;2023-11-21T05:53:51;13.70;99.90
36444;DHT22;24692;45.642;13.806;2023-11-21T05:56:17;13.60;99.90
36444;DHT22;24692;45.642;13.806;2023-11-21T05:58:43;13.70;99.90
36444;DHT22;24692;45.642;13.806;2023-11-21T06:01:09;13.70;99.90
36444;DHT22;24692;45.642;13.806;2023-11-21T06:03:38;13.70;99.90
36444;DHT22;24692;45.642;13.806;2023-11-21T06:06:04;13.70;99.90
36444;DHT22;24692;45.642;13.806;2023-11-21T06:08:30;13.70;99.90
36444;DHT22;24692;45.642;13.806;2023-11-21T06:10:56;13.70;99.90
36444;DHT22;24692;45.642;13.806;2023-11-21T06:13:21;13.60;99.90
36444;DHT22;24692;45.642;13.806;2023-11-21T06:15:50;13.60;99.90
36444;DHT22;24692;45.642;13.806;2023-11-21T06:18:16;13.60;99.90
36444;DHT22;24692;45.642;13.806;2023-11-21T06:20:45;13.60;99.90
36444;DHT22;24692;45.642;13.806;2023-11-21T06:23:11;13.50;99.90
36444;DHT22;24692;45.642;13.806;2023-11-21T06:25:36;13.60;99.90
36444;DHT22;24692;45.642;13.806;2023-11-21T06:28:02;13.50;99.90
36444;DHT22;24692;45.642;13.806;2023-11-21T06:30:28;13.50;99.90
36444;DHT22;24692;45.642;13.806;2023-11-21T06:32:54;13.60;99.90
36444;DHT22;24692;45.642;13.806;2023-11-21T06:35:21;13.60;99.90
36444;DHT22;24692;45.642;13.806;2023-11-21T06:37:47;13.60;99.90
36444;DHT22;24692;45.642;13.806;2023-11-21T06:40:13;13.70;99.90
36444;DHT22;24692;45.642;13.806;2023-11-21T06:42:40;13.80;99.90
36444;DHT22;24692;45.642;13.806;2023-11-21T06:45:07;13.80;99.90
36444;DHT22;24692;45.642;13.806;2023-11-21T06:47:33;13.90;99.90
36444;DHT22;24692;45.642;13.806;2023-11-21T06:50:00;13.80;99.90
36444;DHT22;24692;45.642;13.806;2023-11-21T06:52:26;13.80;99.90
36444;DHT22;24692;45.642;13.806;2023-11-21T06:54:52;13.90;99.90
36444;DHT22;24692;45.642;13.806;2023-11-21T06:57:17;13.90;99.90
36444;DHT22;24692;45.642;13.806;2023-11-21T06:59:43;14.00;99.90
36444;DHT22;24692;45.642;13.806;2023-11-21T07:02:09;14.00;99.90
36444;DHT22;24692;45.642;13.806;2023-11-21T07:04:36;13.90;99.90
36444;DHT22;24692;45.642;13.806;2023-11-21T07:07:05;13.80;99.90
36444;DHT22;24692;45.642;13.806;2023-11-21T07:09:32;13.80;99.90
36444;DHT22;24692;45.642;13.806;2023-11-21T07:11:58;13.80;99.90
36444;DHT22;24692;45.642;13.806;2023-11-21T07:14:23;13.90;99.90
36444;DHT22;24692;45.642;13.806;2023-11-21T07:16:49;14.10;99.90
36444;DHT22;24692;45.642;13.806;2023-11-21T07:19:15;14.20;99.90
36444;DHT22;24692;45.642;13.806;2023-11-21T07:21:41;14.30;99.90
36444;DHT22;24692;45.642;13.806;2023-11-21T07:24:07;14.30;99.90
36444;DHT22;24692;45.642;13.806;2023-11-21T07:26:34;14.40;99.90
36444;DHT22;24692;45.642;13.806;2023-11-21T07:29:03;14.30;99.90
36444;DHT22;24692;45.642;13.806;2023-11-21T07:31:29;14.40;99.90
36444;DHT22;24692;45.642;13.806;2023-11-21T07:33:55;14.30;99.90
36444;DHT22;24692;45.642;13.806;2023-11-21T07:36:24;14.30;99.90
36444;DHT22;24692;45.642;13.806;2023-11-21T07:38:51;14.20;99.90
36444;DHT22;24692;45.642;13.806;2023-11-21T07:41:17;14.40;99.90
36444;DHT22;24692;45.642;13.806;2023-11-21T07:43:46;14.60;99.90
36444;DHT22;24692;45.642;13.806;2023-11-21T07:46:12;14.40;99.90
36444;DHT22;24692;45.642;13.806;2023-11-21T07:48:41;14.50;99.90
36444;DHT22;24692;45.642;13.806;2023-11-21T07:51:11;14.80;99.90
36444;DHT22;24692;45.642;13.806;2023-11-21T07:53:38;14.90;99.90
36444;DHT22;24692;45.642;13.806;2023-11-21T07:56:06;15.00;99.90
36444;DHT22;24692;45.642;13.806;2023-11-21T07:58:33;14.80;99.90
36444;DHT22;24692;45.642;13.806;2023-11-21T08:00:59;15.00;99.90
36444;DHT22;24692;45.642;13.806;2023-11-21T08:03:25;14.90;99.90
36444;DHT22;24692;45.642;13.806;2023-11-21T08:06:00;15.50;99.90
36444;DHT22;24692;45.642;13.806;2023-11-21T08:08:26;16.30;99.90
36444;DHT22;24692;45.642;13.806;2023-11-21T08:10:53;16.40;99.90
36444;DHT22;24692;45.642;13.806;2023-11-21T08:13:25;16.20;99.90
36444;DHT22;24692;45.642;13.806;2023-11-21T08:15:54;15.80;99.90
36444;DHT22;24692;45.642;13.806;2023-11-21T08:18:20;15.70;99.90
36444;DHT22;24692;45.642;13.806;2023-11-21T08:20:45;15.90;99.90
36444;DHT22;24692;45.642;13.806;2023-11-21T08:23:15;16.10;99.90
36444;DHT22;24692;45.642;13.806;2023-11-21T08:25:43;15.40;99.90
36444;DHT22;24692;45.642;13.806;2023-11-21T08:28:09;15.10;99.90
36444;DHT22;24692;45.642;13.806;2023-11-21T08:30:34;14.90;99.90
36444;DHT22;24692;45.642;13.806;2023-11-21T08:33:00;15.20;99.90
36444;DHT22;24692;45.642;13.806;2023-11-21T08:35:26;15.40;99.90
36444;DHT22;24692;45.642;13.806;2023-11-21T08:37:52;15.40;99.90
36444;DHT22;24692;45.642;13.806;2023-11-21T08:40:21;15.40;99.90
36444;DHT22;24692;45.642;13.806;2023-11-21T08:42:50;15.30;99.90
36444;DHT22;24692;45.642;13.806;2023-11-21T08:45:18;15.40;99.90
36444;DHT22;24692;45.642;13.806;2023-11-21T08:47:45;15.20;99.90
36444;DHT22;24692;45.642;13.806;2023-11-21T08:50:11;14.90;99.90
36444;DHT22;24692;45.642;13.806;2023-11-21T08:52:41;14.80;99.90
36444;DHT22;24692;45.642;13.806;2023-11-21T08:55:07;14.80;99.90
36444;DHT22;24692;45.642;13.806;2023-11-21T08:57:37;14.90;99.90
36444;DHT22;24692;45.642;13.806;2023-11-21T09:00:04;15.20;99.90
36444;DHT22;24692;45.642;13.806;2023-11-21T09:37:04;15.20;99.90
36444;DHT22;24692;45.642;13.806;2023-11-21T09:39:32;14.80;99.90
36444;DHT22;24692;45.642;13.806;2023-11-21T09:44:36;15.10;99.90
36444;DHT22;24692;45.642;13.806;2023-11-21T09:47:07;15.30;99.90
36444;DHT22;24692;45.642;13.806;2023-11-21T09:49:37;15.30;99.90
36444;DHT22;24692;45.642;13.806;2023-11-21T09:52:04;15.20;99.90
36444;DHT22;24692;45.642;13.806;2023-11-21T09:54:32;15.30;99.90
36444;DHT22;24692;45.642;13.806;2023-11-21T09:56:59;15.10;99.90
36444;DHT22;24692;45.642;13.806;2023-11-21T09:59:30;15.00;99.90
36444;DHT22;24692;45.642;13.806;2023-11-21T10:01:57;14.80;99.90
36444;DHT22;24692;45.642;13.806;2023-11-21T10:04:24;14.90;99.90
36444;DHT22;24692;45.642;13.806;2023-11-21T10:06:53;15.00;99.90
36444;DHT22;24692;45.642;13.806;2023-11-21T10:09:19;14.60;99.90
36444;DHT22;24692;45.642;13.806;2023-11-21T10:11:47;14.50;99.90
36444;DHT22;24692;45.642;13.806;2023-11-21T10:14:16;14.40;99.90
36444;DHT22;24692;45.642;13.806;2023-11-21T10:16:46;14.40;99.90
36444;DHT22;24692;45.642;13.806;2023-11-21T10:19:13;14.40;99.90
36444;DHT22;24692;45.642;13.806;2023-11-21T10:21:39;14.60;99.90
36444;DHT22;24692;45.642;13.806;2023-11-21T10:24:05;14.50;99.90
36444;DHT22;24692;45.642;13.806;2023-11-21T10:26:32;14.60;99.90
36444;DHT22;24692;45.642;13.806;2023-11-21T10:29:00;14.60;99.90
36444;DHT22;24692;45.642;13.806;2023-11-21T10:31:33;14.50;99.90
36444;DHT22;24692;45.642;13.806;2023-11-21T10:34:19;14.30;99.90
36444;DHT22;24692;45.642;13.806;2023-11-21T10:36:45;14.20;99.90
36444;DHT22;24692;45.642;13.806;2023-11-21T10:39:18;14.10;99.90
36444;DHT22;24692;45.642;13.806;2023-11-21T10:41:48;14.00;99.90
36444;DHT22;24692;45.642;13.806;2023-11-21T10:44:14;13.80;99.90
36444;DHT22;24692;45.642;13.806;2023-11-21T10:46:50;14.60;99.90
36444;DHT22;24692;45.642;13.806;2023-11-21T10:49:20;14.30;99.90
36444;DHT22;24692;45.642;13.806;2023-11-21T10:51:46;14.10;99.90
36444;DHT22;24692;45.642;13.806;2023-11-21T10:54:20;14.00;99.90
36444;DHT22;24692;45.642;13.806;2023-11-21T10:56:49;14.00;99.90
36444;DHT22;24692;45.642;13.806;2023-11-21T10:59:17;13.80;99.90
36444;DHT22;24692;45.642;13.806;2023-11-21T11:01:44;13.80;99.90
36444;DHT22;24692;45.642;13.806;2023-11-21T11:04:11;14.00;99.90
36444;DHT22;24692;45.642;13.806;2023-11-21T11:06:54;14.00;99.90
36444;DHT22;24692;45.642;13.806;2023-11-21T11:09:22;14.00;99.90
36444;DHT22;24692;45.642;13.806;2023-11-21T11:11:47;14.00;99.90
36444;DHT22;24692;45.642;13.806;2023-11-21T11:14:14;13.90;99.90
36444;DHT22;24692;45.642;13.806;2023-11-21T11:16:42;13.90;99.90
36444;DHT22;24692;45.642;13.806;2023-11-21T11:19:09;13.90;99.90
36444;DHT22;24692;45.642;13.806;2023-11-21T11:29:47;14.10;99.90
36444;DHT22;24692;45.642;13.806;2023-11-21T11:33:06;14.00;99.90
36444;DHT22;24692;45.642;13.806;2023-11-21T11:35:52;14.10;99.90
36444;DHT22;24692;45.642;13.806;2023-11-21T11:38:21;14.00;99.90
36444;DHT22;24692;45.642;13.806;2023-11-21T11:40:53;13.90;99.90
36444;DHT22;24692;45.642;13.806;2023-11-21T11:43:26;13.80;99.90
36444;DHT22;24692;45.642;13.806;2023-11-21T11:45:55;13.80;99.90
36444;DHT22;24692;45.642;13.806;2023-11-21T11:48:22;13.80;99.90
36444;DHT22;24692;45.642;13.806;2023-11-21T11:51:10;13.80;99.90
36444;DHT22;24692;45.642;13.806;2023-11-21T11:53:41;13.90;99.90
36444;DHT22;24692;45.642;13.806;2023-11-21T11:56:29;13.90;99.90
36444;DHT22;24692;45.642;13.806;2023-11-21T11:59:02;13.80;99.90
36444;DHT22;24692;45.642;13.806;2023-11-21T12:01:28;13.80;99.90
36444;DHT22;24692;45.642;13.806;2023-11-21T12:07:01;13.70;99.90
36444;DHT22;24692;45.642;13.806;2023-11-21T12:09:31;13.80;99.90
36444;DHT22;24692;45.642;13.806;2023-11-21T12:11:57;13.70;99.90
36444;DHT22;24692;45.642;13.806;2023-11-21T12:14:23;13.50;99.90
36444;DHT22;24692;45.642;13.806;2023-11-21T12:16:49;13.40;99.90
36444;DHT22;24692;45.642;13.806;2023-11-21T12:19:17;13.50;99.90
36444;DHT22;24692;45.642;13.806;2023-11-21T12:21:42;13.60;99.90
36444;DHT22;24692;45.642;13.806;2023-11-21T12:24:09;13.70;99.90
36444;DHT22;24692;45.642;13.806;2023-11-21T12:26:39;13.70;99.90
36444;DHT22;24692;45.642;13.806;2023-11-21T12:29:05;13.60;99.90
36444;DHT22;24692;45.642;13.806;2023-11-21T12:31:33;13.70;99.90
36444;DHT22;24692;45.642;13.806;2023-11-21T12:34:00;13.70;99.90
36444;DHT22;24692;45.642;13.806;2023-11-21T12:36:26;13.70;99.90
36444;DHT22;24692;45.642;13.806;2023-11-21T12:38:54;13.60;99.90
36444;DHT22;24692;45.642;13.806;2023-11-21T12:41:20;13.50;99.90
36444;DHT22;24692;45.642;13.806;2023-11-21T12:43:47;13.50;99.90
36444;DHT22;24692;45.642;13.806;2023-11-21T12:46:13;13.50;99.90
36444;DHT22;24692;45.642;13.806;2023-11-21T12:48:44;13.50;99.90
36444;DHT22;24692;45.642;13.806;2023-11-21T12:51:12;13.40;99.90
36444;DHT22;24692;45.642;13.806;2023-11-21T12:53:39;13.20;99.90
36444;DHT22;24692;45.642;13.806;2023-11-21T12:56:15;13.20;99.90
36444;DHT22;24692;45.642;13.806;2023-11-21T12:58:45;13.20;99.90
36444;DHT22;24692;45.642;13.806;2023-11-21T13:01:13;13.20;99.90
36444;DHT22;24692;45.642;13.806;2023-11-21T13:03:43;13.10;99.90
36444;DHT22;24692;45.642;13.806;2023-11-21T13:06:11;13.20;99.90
36444;DHT22;24692;45.642;13.806;2023-11-21T13:08:38;13.20;99.90
36444;DHT22;24692;45.642;13.806;2023-11-21T13:11:05;13.30;99.90
36444;DHT22;24692;45.642;13.806;2023-11-21T13:13:31;13.30;99.90
36444;DHT22;24692;45.642;13.806;2023-11-21T13:16:00;13.40;99.90
36444;DHT22;24692;45.642;13.806;2023-11-21T13:18:27;13.30;99.90
36444;DHT22;24692;45.642;13.806;2023-11-21T13:20:57;13.30;99.90
36444;DHT22;24692;45.642;13.806;2023-11-21T13:23:23;13.40;99.90
36444;DHT22;24692;45.642;13.806;2023-11-21T13:25:49;13.30;99.90
36444;DHT22;24692;45.642;13.806;2023-11-21T13:28:15;13.30;99.90
36444;DHT22;24692;45.642;13.806;2023-11-21T13:30:43;13.30;99.90
36444;DHT22;24692;45.642;13.806;2023-11-21T13:33:10;13.20;99.90
36444;DHT22;24692;45.642;13.806;2023-11-21T13:35:43;13.30;99.90
36444;DHT22;24692;45.642;13.806;2023-11-21T13:38:10;13.30;99.90
36444;DHT22;24692;45.642;13.806;2023-11-21T13:40:38;13.30;99.90
36444;DHT22;24692;45.642;13.806;2023-11-21T13:43:12;13.30;99.90
36444;DHT22;24692;45.642;13.806;2023-11-21T13:45:40;13.30;99.90
36444;DHT22;24692;45.642;13.806;2023-11-21T13:48:06;13.20;99.90
36444;DHT22;24692;45.642;13.806;2023-11-21T13:50:48;13.20;99.90
36444;DHT22;24692;45.642;13.806;2023-11-21T13:53:36;13.10;99.90
36444;DHT22;24692;45.642;13.806;2023-11-21T13:56:03;13.10;99.90
36444;DHT22;24692;45.642;13.806;2023-11-21T13:58:29;13.20;99.90
36444;DHT22;24692;45.642;13.806;2023-11-21T14:01:13;13.20;99.90
36444;DHT22;24692;45.642;13.806;2023-11-21T14:03:51;13.20;99.90
36444;DHT22;24692;45.642;13.806;2023-11-21T14:06:22;13.20;99.90
36444;DHT22;24692;45.642;13.806;2023-11-21T14:08:53;13.20;99.90
36444;DHT22;24692;45.642;13.806;2023-11-21T14:11:22;13.20;99.90
36444;DHT22;24692;45.642;13.806;2023-11-21T14:13:48;13.20;99.90
36444;DHT22;24692;45.642;13.806;2023-11-21T14:16:15;13.20;99.90
36444;DHT22;24692;45.642;13.806;2023-11-21T14:18:43;13.20;99.90
36444;DHT22;24692;45.642;13.806;2023-11-21T14:21:19;13.10;99.90
36444;DHT22;24692;45.642;13.806;2023-11-21T14:23:45;13.10;99.90
36444;DHT22;24692;45.642;13.806;2023-11-21T14:26:14;13.10;99.90
36444;DHT22;24692;45.642;13.806;2023-11-21T14:28:41;13.10;99.90
36444;DHT22;24692;45.642;13.806;2023-11-21T14:31:08;13.10;99.90
36444;DHT22;24692;45.642;13.806;2023-11-21T14:33:39;13.00;99.90
36444;DHT22;24692;45.642;13.806;2023-11-21T14:36:05;13.10;99.90
36444;DHT22;24692;45.642;13.806;2023-11-21T14:38:33;13.10;99.90
36444;DHT22;24692;45.642;13.806;2023-11-21T14:40:59;13.10;99.90
36444;DHT22;24692;45.642;13.806;2023-11-21T14:43:25;13.10;99.90
36444;DHT22;24692;45.642;13.806;2023-11-21T14:45:55;13.10;99.90
36444;DHT22;24692;45.642;13.806;2023-11-21T14:48:21;13.00;99.90
36444;DHT22;24692;45.642;13.806;2023-11-21T14:51:05;13.00;99.90
36444;DHT22;24692;45.642;13.806;2023-11-21T14:53:31;13.00;99.90
36444;DHT22;24692;45.642;13.806;2023-11-21T14:56:22;13.00;99.90
36444;DHT22;24692;45.642;13.806;2023-11-21T14:58:58;12.80;99.90
36444;DHT22;24692;45.642;13.806;2023-11-21T15:01:41;12.70;99.90
36444;DHT22;24692;45.642;13.806;2023-11-21T15:04:22;12.70;99.90
36444;DHT22;24692;45.642;13.806;2023-11-21T15:07:05;12.90;99.90
36444;DHT22;24692;45.642;13.806;2023-11-21T15:09:31;12.80;99.90
36444;DHT22;24692;45.642;13.806;2023-11-21T15:11:58;12.70;99.90
36444;DHT22;24692;45.642;13.806;2023-11-21T15:14:29;12.70;99.90
36444;DHT22;24692;45.642;13.806;2023-11-21T15:16:59;12.60;99.90
36444;DHT22;24692;45.642;13.806;2023-11-21T15:19:26;12.70;99.90
36444;DHT22;24692;45.642;13.806;2023-11-21T15:21:53;12.80;99.90
36444;DHT22;24692;45.642;13.806;2023-11-21T15:24:19;12.80;99.90
36444;DHT22;24692;45.642;13.806;2023-11-21T15:26:45;12.80;99.90
36444;DHT22;24692;45.642;13.806;2023-11-21T15:29:11;12.70;99.90
36444;DHT22;24692;45.642;13.806;2023-11-21T15:31:38;12.70;99.90
36444;DHT22;24692;45.642;13.806;2023-11-21T15:34:06;12.70;99.90
36444;DHT22;24692;45.642;13.806;2023-11-21T15:36:34;12.70;99.90
36444;DHT22;24692;45.642;13.806;2023-11-21T15:38:59;12.70;99.90
36444;DHT22;24692;45.642;13.806;2023-11-21T15:41:25;12.70;99.90
36444;DHT22;24692;45.642;13.806;2023-11-21T15:43:51;12.60;99.90
36444;DHT22;24692;45.642;13.806;2023-11-21T15:46:17;12.60;99.90
36444;DHT22;24692;45.642;13.806;2023-11-21T15:48:42;12.60;99.90
36444;DHT22;24692;45.642;13.806;2023-11-21T15:51:15;12.60;99.90
36444;DHT22;24692;45.642;13.806;2023-11-21T15:53:42;12.50;99.90
36444;DHT22;24692;45.642;13.806;2023-11-21T15:56:08;12.60;99.90
36444;DHT22;24692;45.642;13.806;2023-11-21T15:58:39;12.60;99.90
36444;DHT22;24692;45.642;13.806;2023-11-21T16:01:09;12.60;99.90
36444;DHT22;24692;45.642;13.806;2023-11-21T16:03:36;12.50;99.90
36444;DHT22;24692;45.642;13.806;2023-11-21T16:06:02;12.50;99.90
36444;DHT22;24692;45.642;13.806;2023-11-21T16:08:29;12.60;99.90